createdAt,value
2022-10-09T00:00:45.288Z,101913.28
2022-10-09T00:03:19.508Z,101919.03
2022-10-09T00:05:53.092Z,101914.31
2022-10-09T00:08:27.211Z,101926.53
2022-10-09T00:11:05.918Z,101922.00
2022-10-09T00:13:39.758Z,101918.38
2022-10-09T00:16:15.789Z,101923.56
2022-10-09T00:18:50.158Z,101925.81
2022-10-09T00:21:25.528Z,101921.41
2022-10-09T00:24:01.785Z,101928.28
2022-10-09T00:26:36.710Z,101930.88
2022-10-09T00:29:10.482Z,101929.38
2022-10-09T00:31:44.024Z,101930.91
2022-10-09T00:34:17.788Z,101929.88
2022-10-09T00:36:51.228Z,101930.00
2022-10-09T00:39:24.991Z,101934.16
2022-10-09T00:41:59.873Z,101947.16
2022-10-09T00:44:52.862Z,101943.28
2022-10-09T00:47:31.021Z,101946.66
2022-10-09T00:50:11.191Z,101960.31
2022-10-09T00:52:45.007Z,101950.44
2022-10-09T00:55:19.265Z,101946.03
2022-10-09T00:57:55.940Z,101959.69
2022-10-09T01:00:29.676Z,101955.91
2022-10-09T01:03:03.177Z,101960.97
2022-10-09T01:05:48.205Z,101961.09
2022-10-09T01:08:29.266Z,101965.25
2022-10-09T01:11:13.093Z,101969.81
2022-10-09T01:13:53.971Z,101962.53
2022-10-09T01:16:31.920Z,101962.91
2022-10-09T01:19:17.329Z,101960.19
2022-10-09T01:21:59.943Z,101959.41
2022-10-09T01:24:39.301Z,101959.53
2022-10-09T01:27:16.649Z,101954.47
2022-10-09T01:29:53.490Z,101956.78
2022-10-09T01:32:32.466Z,101946.91
2022-10-09T01:35:07.877Z,101957.44
2022-10-09T01:37:45.121Z,101949.63
2022-10-09T01:40:19.758Z,101949.63
2022-10-09T01:42:55.789Z,101955.25
2022-10-09T01:45:39.015Z,101957.84
2022-10-09T01:48:17.494Z,101954.09
2022-10-09T01:50:57.263Z,101953.06
2022-10-09T01:53:32.564Z,101950.31
2022-10-09T01:56:10.182Z,101952.00
2022-10-09T01:58:51.392Z,101956.56
2022-10-09T02:01:29.548Z,101949.66
2022-10-09T02:04:06.651Z,101957.59
2022-10-09T02:06:42.467Z,101954.09
2022-10-09T02:09:18.927Z,101959.53
2022-10-09T02:11:56.421Z,101958.88
2022-10-09T02:14:31.755Z,101964.19
2022-10-09T02:17:10.129Z,101968.88
2022-10-09T02:19:48.653Z,101975.50
2022-10-09T02:22:26.482Z,101962.50
2022-10-09T02:25:04.895Z,101968.50
2022-10-09T02:27:38.584Z,101971.88
2022-10-09T02:30:16.376Z,101969.53
2022-10-09T02:32:52.899Z,101970.69
2022-10-09T02:35:26.877Z,101975.09
2022-10-09T02:38:00.355Z,101978.09
2022-10-09T02:40:34.116Z,101972.34
2022-10-09T02:43:07.723Z,101976.63
2022-10-09T02:45:44.086Z,101974.56
2022-10-09T02:48:17.546Z,101975.97
2022-10-09T02:50:51.365Z,101977.66
2022-10-09T02:53:24.860Z,101973.66
2022-10-09T02:55:58.540Z,101969.38
2022-10-09T02:58:32.749Z,101977.16
2022-10-09T03:01:08.620Z,101973.00
2022-10-09T03:03:42.192Z,101975.47
2022-10-09T03:06:18.035Z,101980.06
2022-10-09T03:08:52.918Z,101987.47
2022-10-09T03:11:27.529Z,101982.28
2022-10-09T03:14:01.114Z,101993.44
2022-10-09T03:16:36.279Z,101991.63
2022-10-09T03:19:09.845Z,101994.09
2022-10-09T03:21:43.516Z,101997.72
2022-10-09T03:24:17.012Z,101992.28
2022-10-09T03:26:50.720Z,101995.00
2022-10-09T03:29:24.325Z,102000.72
2022-10-09T03:31:59.440Z,101987.47
2022-10-09T03:34:33.235Z,102006.34
2022-10-09T03:37:07.410Z,102007.13
2022-10-09T03:39:40.865Z,102016.50
2022-10-09T03:42:14.702Z,102019.75
2022-10-09T03:44:48.213Z,102013.09
2022-10-09T03:47:23.260Z,102017.13
2022-10-09T03:49:56.761Z,102024.91
2022-10-09T03:52:30.520Z,102022.44
2022-10-09T03:55:04.472Z,102020.50
2022-10-09T03:57:38.634Z,102022.84
2022-10-09T04:00:13.507Z,102022.47
2022-10-09T04:02:49.037Z,102026.25
2022-10-09T04:05:23.217Z,102030.22
2022-10-09T04:07:56.918Z,102022.31
2022-10-09T04:10:30.510Z,102027.25
2022-10-09T04:13:04.756Z,102027.00
2022-10-09T04:15:38.305Z,102025.31
2022-10-09T04:18:13.449Z,102034.41
2022-10-09T04:20:50.006Z,102031.53
2022-10-09T04:23:26.174Z,102027.00
2022-10-09T04:26:01.085Z,102023.06
2022-10-09T04:28:34.891Z,102031.50
2022-10-09T04:31:08.963Z,102026.31
2022-10-09T04:33:44.262Z,102023.31
2022-10-09T04:36:17.852Z,102019.53
2022-10-09T04:38:52.579Z,102025.38
2022-10-09T04:41:26.250Z,102018.88
2022-10-09T04:44:00.139Z,102026.00
2022-10-09T04:46:33.807Z,102024.16
2022-10-09T04:49:12.507Z,102026.00
2022-10-09T04:51:46.344Z,102027.53
2022-10-09T04:54:20.178Z,102022.09
2022-10-09T04:56:53.744Z,102019.88
2022-10-09T04:59:27.626Z,102022.03
2022-10-09T05:02:01.460Z,102022.97
2022-10-09T05:04:36.637Z,102031.25
2022-10-09T05:07:10.171Z,102021.63
2022-10-09T05:09:44.040Z,102020.31
2022-10-09T05:12:17.813Z,102027.06
2022-10-09T05:14:51.491Z,102026.63
2022-10-09T05:17:25.265Z,102025.09
2022-10-09T05:20:00.511Z,102029.22
2022-10-09T05:22:34.188Z,102017.81
2022-10-09T05:25:09.241Z,102022.47
2022-10-09T05:27:42.885Z,102036.63
2022-10-09T05:30:17.060Z,102036.63
2022-10-09T05:32:50.853Z,102039.41
2022-10-09T05:35:26.237Z,102039.69
2022-10-09T05:37:59.772Z,102034.88
2022-10-09T05:40:33.562Z,102040.97
2022-10-09T05:43:07.275Z,102030.97
2022-10-09T05:45:41.171Z,102034.19
2022-10-09T05:48:14.828Z,102035.47
2022-10-09T05:50:49.942Z,102042.22
2022-10-09T05:53:23.460Z,102045.53
2022-10-09T05:56:01.552Z,102040.94
2022-10-09T05:58:37.102Z,102050.53
2022-10-09T06:01:11.620Z,102054.25
2022-10-09T06:03:49.913Z,102052.91
2022-10-09T06:06:27.393Z,102057.69
2022-10-09T06:09:00.840Z,102056.28
2022-10-09T06:11:36.320Z,102049.91
2022-10-09T06:14:11.590Z,102043.81
2022-10-09T06:16:46.439Z,102056.91
2022-10-09T06:19:21.017Z,102051.72
2022-10-09T06:21:56.319Z,102050.31
2022-10-09T06:24:30.005Z,102053.69
2022-10-09T06:27:03.664Z,102061.09
2022-10-09T06:29:37.155Z,102058.50
2022-10-09T06:32:10.912Z,102060.19
2022-10-09T06:34:44.671Z,102064.28
2022-10-09T06:37:19.918Z,102068.97
2022-10-09T06:39:53.494Z,102062.59
2022-10-09T06:42:27.307Z,102069.47
2022-10-09T06:45:00.925Z,102074.16
2022-10-09T06:47:34.839Z,102078.28
2022-10-09T06:50:09.791Z,102076.38
2022-10-09T06:52:45.008Z,102083.94
2022-10-09T06:55:18.435Z,102083.53
2022-10-09T06:57:52.184Z,102092.56
2022-10-09T07:00:26.227Z,102089.63
2022-10-09T07:03:00.033Z,102095.16
2022-10-09T07:05:33.802Z,102100.75
2022-10-09T07:08:08.883Z,102095.88
2022-10-09T07:10:42.437Z,102105.25
2022-10-09T07:13:16.147Z,102106.44
2022-10-09T07:15:49.732Z,102103.88
2022-10-09T07:18:24.093Z,102103.13
2022-10-09T07:20:57.689Z,102109.75
2022-10-09T07:23:33.590Z,102099.00
2022-10-09T07:26:12.967Z,102104.59
2022-10-09T07:28:47.868Z,102108.78
2022-10-09T07:31:22.904Z,102106.41
2022-10-09T07:33:57.044Z,102107.63
2022-10-09T07:36:30.729Z,102104.34
2022-10-09T07:39:07.103Z,102102.34
2022-10-09T07:41:40.611Z,102109.28
2022-10-09T07:44:14.420Z,102113.31
2022-10-09T07:46:50.153Z,102107.34
2022-10-09T07:49:23.949Z,102109.91
2022-10-09T07:51:57.432Z,102109.38
2022-10-09T07:54:32.528Z,102118.22
2022-10-09T07:57:06.967Z,102119.91
2022-10-09T07:59:41.224Z,102119.16
2022-10-09T08:02:14.866Z,102122.13
2022-10-09T08:04:48.661Z,102117.72
2022-10-09T08:07:22.128Z,102122.88
2022-10-09T08:09:57.348Z,102125.97
2022-10-09T08:12:31.082Z,102128.31
2022-10-09T08:15:06.022Z,102125.41
2022-10-09T08:17:39.651Z,102125.34
2022-10-09T08:20:13.374Z,102126.13
2022-10-09T08:22:47.414Z,102128.41
2022-10-09T08:25:22.818Z,102131.69
2022-10-09T08:27:56.855Z,102137.09
2022-10-09T08:30:30.948Z,102132.03
2022-10-09T08:33:04.666Z,102140.41
2022-10-09T08:35:38.575Z,102145.38
2022-10-09T08:38:31.015Z,102140.16
2022-10-09T08:41:11.002Z,102142.03
2022-10-09T08:43:49.161Z,102137.88
2022-10-09T08:46:27.292Z,102140.63
2022-10-09T08:49:03.857Z,102145.16
2022-10-09T08:51:39.667Z,102141.97
2022-10-09T08:54:20.931Z,102143.88
2022-10-09T08:56:56.059Z,102138.03
2022-10-09T08:59:29.692Z,102133.94
2022-10-09T09:02:16.579Z,102134.31
2022-10-09T09:05:02.019Z,102138.75
2022-10-09T09:07:47.032Z,102127.97
2022-10-09T09:10:31.387Z,102138.75
2022-10-09T09:13:18.405Z,102132.28
2022-10-09T09:15:57.262Z,102133.16
2022-10-09T09:18:41.906Z,102136.69
2022-10-09T09:21:23.035Z,102141.69
2022-10-09T09:23:58.709Z,102150.41
2022-10-09T09:26:32.467Z,102143.34
2022-10-09T09:29:07.794Z,102142.78
2022-10-09T09:31:42.528Z,102142.28
2022-10-09T09:34:23.180Z,102144.72
2022-10-09T09:36:59.595Z,102147.63
2022-10-09T09:40:24.214Z,102133.88
2022-10-09T09:42:29.729Z,102141.13
2022-10-09T09:45:08.062Z,102130.56
2022-10-09T09:47:47.940Z,102127.03
2022-10-09T09:50:46.971Z,102132.78
2022-10-09T09:53:28.438Z,102126.22
2022-10-09T09:56:02.588Z,102126.75
2022-10-09T09:58:40.231Z,102125.59
2022-10-09T10:01:24.386Z,102123.97
2022-10-09T10:04:00.149Z,102122.56
2022-10-09T10:06:42.332Z,102122.56
2022-10-09T10:09:18.531Z,102121.41
2022-10-09T10:12:01.361Z,102121.16
2022-10-09T10:14:36.086Z,102122.63
2022-10-09T10:17:29.475Z,102125.72
2022-10-09T10:20:07.676Z,102116.97
2022-10-09T10:22:41.534Z,102123.88
2022-10-09T10:25:18.756Z,102117.47
2022-10-09T10:27:57.543Z,102123.88
2022-10-09T10:30:32.434Z,102119.81
2022-10-09T10:33:18.214Z,102118.28
2022-10-09T10:35:55.064Z,102112.13
2022-10-09T10:38:33.886Z,102119.44
2022-10-09T10:41:15.885Z,102114.56
2022-10-09T10:43:52.565Z,102111.91
2022-10-09T10:46:30.339Z,102109.38
2022-10-09T10:49:09.171Z,102114.72
2022-10-09T10:51:59.168Z,102110.06
2022-10-09T10:54:39.642Z,102108.75
2022-10-09T10:57:17.397Z,102109.66
2022-10-09T11:00:04.300Z,102110.69
2022-10-09T11:03:07.171Z,102102.31
2022-10-09T11:05:50.297Z,102098.59
2022-10-09T11:08:44.426Z,102096.06
2022-10-09T11:11:24.095Z,102090.38
2022-10-09T11:14:16.582Z,102084.56
2022-10-09T11:17:03.293Z,102076.28
2022-10-09T11:19:53.140Z,102077.22
2022-10-09T11:22:47.816Z,102083.28
2022-10-09T11:25:29.539Z,102075.47
2022-10-09T11:28:10.562Z,102078.84
2022-10-09T11:30:51.544Z,102075.03
2022-10-09T11:33:30.255Z,102069.34
2022-10-09T11:36:11.423Z,102065.78
2022-10-09T11:38:51.833Z,102062.03
2022-10-09T11:41:27.741Z,102067.44
2022-10-09T11:44:21.764Z,102055.38
2022-10-09T11:47:09.513Z,102055.34
2022-10-09T11:49:58.804Z,102050.31
2022-10-09T11:52:42.723Z,102050.69
2022-10-09T11:55:20.956Z,102043.44
2022-10-09T11:57:55.155Z,102047.22
2022-10-09T12:00:31.782Z,102043.50
2022-10-09T12:03:08.254Z,102035.38
2022-10-09T12:05:44.051Z,102034.88
2022-10-09T12:08:20.022Z,102036.31
2022-10-09T12:10:59.193Z,102023.66
2022-10-09T12:13:45.244Z,102029.09
2022-10-09T12:16:38.697Z,102022.56
2022-10-09T12:19:19.759Z,102015.28
2022-10-09T12:22:00.326Z,102014.53
2022-10-09T12:24:39.702Z,102016.91
2022-10-09T12:27:19.937Z,102001.34
2022-10-09T12:29:57.353Z,102002.59
2022-10-09T12:32:34.476Z,101993.66
2022-10-09T12:35:18.765Z,101999.44
2022-10-09T12:37:52.918Z,101988.75
2022-10-09T12:40:29.110Z,101988.72
2022-10-09T12:43:09.186Z,101990.44
2022-10-09T12:45:46.080Z,101988.19
2022-10-09T12:48:22.894Z,101983.41
2022-10-09T12:50:56.871Z,101975.72
2022-10-09T12:53:30.772Z,101977.78
2022-10-09T12:56:13.485Z,101977.97
2022-10-09T12:58:48.939Z,101972.19
2022-10-09T13:01:23.387Z,101967.72
2022-10-09T13:03:59.167Z,101958.41
2022-10-09T13:06:38.096Z,101954.63
2022-10-09T13:09:22.991Z,101953.16
2022-10-09T13:12:00.504Z,101946.25
2022-10-09T13:14:42.328Z,101949.34
2022-10-09T13:20:25.839Z,101942.13
2022-10-09T13:23:01.407Z,101945.81
2022-10-09T13:25:37.226Z,101941.22
2022-10-09T13:28:19.104Z,101929.50
2022-10-09T13:30:54.318Z,101939.28
2022-10-09T13:33:27.960Z,101932.06
2022-10-09T13:36:01.742Z,101928.53
2022-10-09T13:38:35.255Z,101924.66
2022-10-09T13:41:23.130Z,101915.59
2022-10-09T13:43:56.843Z,101914.69
2022-10-09T13:46:32.116Z,101913.06
2022-10-09T13:49:05.781Z,101911.25
2022-10-09T13:51:39.631Z,101901.75
2022-10-09T13:54:13.276Z,101901.81
2022-10-09T13:56:47.005Z,101893.03
2022-10-09T13:59:20.737Z,101895.59
2022-10-09T14:01:55.837Z,101888.78
2022-10-09T14:04:30.437Z,101901.44
2022-10-09T14:07:04.349Z,101895.16
2022-10-09T14:09:38.026Z,101891.97
2022-10-09T14:12:12.069Z,101888.84
2022-10-09T14:14:45.678Z,101881.72
2022-10-09T14:17:21.260Z,101875.09
2022-10-09T14:19:55.014Z,101885.22
2022-10-09T14:22:28.811Z,101864.69
2022-10-09T14:25:02.546Z,101870.03
2022-10-09T14:27:38.281Z,101861.69
2022-10-09T14:30:14.554Z,101860.44
2022-10-09T14:32:50.214Z,101859.44
2022-10-09T14:35:23.843Z,101858.72
2022-10-09T14:37:57.606Z,101851.13
2022-10-09T14:40:31.155Z,101847.31
2022-10-09T14:43:04.939Z,101847.88
2022-10-09T14:45:39.032Z,101851.16
2022-10-09T14:48:14.228Z,101840.00
2022-10-09T14:51:02.068Z,101829.16
2022-10-09T14:53:51.488Z,101831.31
2022-10-09T14:56:25.873Z,101826.72
2022-10-09T14:59:00.527Z,101828.00
2022-10-09T15:01:35.430Z,101825.09
2022-10-09T15:04:10.630Z,101825.00
2022-10-09T15:06:44.530Z,101810.97
2022-10-09T15:09:18.787Z,101807.19
2022-10-09T15:11:52.332Z,101813.81
2022-10-09T15:14:26.120Z,101804.63
2022-10-09T15:16:59.923Z,101805.75
2022-10-09T15:19:35.140Z,101791.63
2022-10-09T15:22:08.674Z,101792.88
2022-10-09T15:24:42.613Z,101790.25
2022-10-09T15:27:16.151Z,101788.63
2022-10-09T15:29:49.939Z,101782.97
2022-10-09T15:32:25.145Z,101788.63
2022-10-09T15:35:00.378Z,101788.47
2022-10-09T15:37:34.062Z,101781.16
2022-10-09T15:40:08.825Z,101784.03
2022-10-09T15:42:45.851Z,101779.59
2022-10-09T15:45:19.669Z,101771.56
2022-10-09T15:47:53.465Z,101764.69
2022-10-09T15:50:28.570Z,101767.38
2022-10-09T15:53:02.608Z,101768.94
2022-10-09T15:55:37.835Z,101762.25
2022-10-09T15:58:11.987Z,101763.47
2022-10-09T16:00:48.471Z,101757.13
2022-10-09T16:03:22.048Z,101750.53
2022-10-09T16:06:00.567Z,101750.94
2022-10-09T16:08:34.750Z,101744.34
2022-10-09T16:11:11.197Z,101749.13
2022-10-09T16:13:47.881Z,101746.84
2022-10-09T16:16:24.192Z,101746.38
2022-10-09T16:18:57.997Z,101751.44
2022-10-09T16:21:33.653Z,101743.06
2022-10-09T16:24:07.327Z,101740.00
2022-10-09T16:26:41.129Z,101738.00
2022-10-09T16:29:14.701Z,101736.81
2022-10-09T16:31:48.535Z,101732.97
2022-10-09T16:34:22.180Z,101739.63
2022-10-09T16:36:59.609Z,101736.66
2022-10-09T16:39:33.402Z,101731.81
2022-10-09T16:42:07.163Z,101731.53
2022-10-09T16:44:40.758Z,101738.38
2022-10-09T16:47:14.566Z,101730.03
2022-10-09T16:49:48.061Z,101736.59
2022-10-09T16:52:23.633Z,101730.91
2022-10-09T16:55:00.407Z,101725.41
2022-10-09T16:57:34.610Z,101715.66
2022-10-09T17:00:09.330Z,101715.53
2022-10-09T17:02:43.127Z,101717.63
2022-10-09T17:05:16.738Z,101719.97
2022-10-09T17:07:52.147Z,101724.00
2022-10-09T17:10:26.003Z,101723.69
2022-10-09T17:12:59.932Z,101718.19
2022-10-09T17:15:33.459Z,101714.44
2022-10-09T17:18:07.768Z,101714.22
2022-10-09T17:20:41.558Z,101718.34
2022-10-09T17:23:16.741Z,101708.69
2022-10-09T17:25:50.196Z,101714.63
2022-10-09T17:28:24.246Z,101708.09
2022-10-09T17:30:57.823Z,101718.13
2022-10-09T17:33:32.183Z,101714.22
2022-10-09T17:36:06.230Z,101717.22
2022-10-09T17:38:41.512Z,101722.00
2022-10-09T17:41:16.875Z,101716.59
2022-10-09T17:43:51.119Z,101708.03
2022-10-09T17:46:26.367Z,101701.34
2022-10-09T17:49:01.564Z,101703.75
2022-10-09T17:51:37.131Z,101701.84
2022-10-09T17:54:15.401Z,101694.50
2022-10-09T17:56:49.206Z,101695.91
2022-10-09T17:59:23.097Z,101696.59
2022-10-09T18:01:56.699Z,101692.75
2022-10-09T18:04:30.563Z,101690.53
2022-10-09T18:07:05.521Z,101678.84
2022-10-09T18:09:40.686Z,101677.03
2022-10-09T18:12:14.324Z,101680.13
2022-10-09T18:14:48.098Z,101678.75
2022-10-09T18:17:21.636Z,101673.44
2022-10-09T18:19:55.399Z,101667.81
2022-10-09T18:22:29.042Z,101678.72
2022-10-09T18:25:05.239Z,101671.44
2022-10-09T18:27:38.973Z,101673.94
2022-10-09T18:30:13.974Z,101664.09
2022-10-09T18:32:47.748Z,101659.59
2022-10-09T18:35:21.772Z,101658.47
2022-10-09T18:37:55.246Z,101657.34
2022-10-09T18:40:30.508Z,101658.94
2022-10-09T18:43:04.275Z,101653.16
2022-10-09T18:45:40.001Z,101652.94
2022-10-09T18:48:14.966Z,101651.94
2022-10-09T18:50:48.985Z,101655.13
2022-10-09T18:53:22.868Z,101657.53
2022-10-09T18:55:58.324Z,101651.28
2022-10-09T18:58:31.958Z,101648.56
2022-10-09T19:01:27.072Z,101650.28
2022-10-09T19:04:00.752Z,101648.31
2022-10-09T19:06:36.934Z,101643.22
2022-10-09T19:09:10.609Z,101649.34
2022-10-09T19:11:46.836Z,101646.53
2022-10-09T19:14:20.652Z,101639.97
2022-10-09T19:16:54.722Z,101635.66
2022-10-09T19:19:29.019Z,101633.53
2022-10-09T19:22:03.054Z,101631.50
2022-10-09T19:24:36.932Z,101630.50
2022-10-09T19:27:12.234Z,101631.03
2022-10-09T19:29:45.733Z,101624.59
2022-10-09T19:32:23.590Z,101623.59
2022-10-09T19:34:57.797Z,101620.88
2022-10-09T19:37:32.271Z,101622.00
2022-10-09T19:40:07.063Z,101615.53
2022-10-09T19:42:42.156Z,101615.31
2022-10-09T19:45:15.848Z,101611.72
2022-10-09T19:47:53.563Z,101605.50
2022-10-09T19:50:28.487Z,101615.75
2022-10-09T19:53:03.268Z,101609.53
2022-10-09T19:55:37.909Z,101607.72
2022-10-09T19:58:13.103Z,101613.84
2022-10-09T20:00:47.711Z,101614.75
2022-10-09T20:03:21.836Z,101610.44
2022-10-09T20:05:55.449Z,101607.41
2022-10-09T20:08:29.282Z,101610.91
2022-10-09T20:11:04.378Z,101616.22
2022-10-09T20:13:42.058Z,101615.66
2022-10-09T20:16:17.496Z,101608.75
2022-10-09T20:18:51.278Z,101596.50
2022-10-09T20:21:25.050Z,101602.75
2022-10-09T20:23:59.400Z,101592.31
2022-10-09T20:26:33.390Z,101592.53
2022-10-09T20:29:08.584Z,101590.84
2022-10-09T20:31:42.661Z,101586.41
2022-10-09T20:34:16.789Z,101583.91
2022-10-09T20:36:50.347Z,101583.00
2022-10-09T20:39:24.239Z,101584.72
2022-10-09T20:41:58.190Z,101581.31
2022-10-09T20:44:33.470Z,101578.59
2022-10-09T20:47:07.095Z,101575.19
2022-10-09T20:49:43.547Z,101575.41
2022-10-09T20:52:17.094Z,101569.41
2022-10-09T20:54:50.986Z,101569.28
2022-10-09T20:57:24.601Z,101565.91
2022-10-09T20:59:59.785Z,101566.69
2022-10-09T21:02:33.515Z,101569.28
2022-10-09T21:05:08.215Z,101557.06
2022-10-09T21:07:42.032Z,101563.28
2022-10-09T21:10:15.747Z,101555.03
2022-10-09T21:12:49.558Z,101555.25
2022-10-09T21:15:24.918Z,101561.69
2022-10-09T21:17:58.416Z,101558.97
2022-10-09T21:20:32.140Z,101557.16
2022-10-09T21:23:05.700Z,101554.34
2022-10-09T21:25:39.918Z,101551.63
2022-10-09T21:28:13.490Z,101552.31
2022-10-09T21:30:49.005Z,101546.06
2022-10-09T21:33:23.062Z,101546.97
2022-10-09T21:35:56.903Z,101547.22
2022-10-09T21:38:30.522Z,101538.59
2022-10-09T21:41:04.441Z,101547.31
2022-10-09T21:43:38.165Z,101540.31
2022-10-09T21:46:13.367Z,101546.97
2022-10-09T21:48:46.979Z,101540.97
2022-10-09T21:51:20.768Z,101534.75
2022-10-09T21:53:54.685Z,101539.03
2022-10-09T21:56:28.500Z,101533.94
2022-10-09T21:59:02.165Z,101536.53
2022-10-09T22:01:37.419Z,101528.19
2022-10-09T22:04:10.988Z,101524.38
2022-10-09T22:06:44.902Z,101520.84
2022-10-09T22:09:18.514Z,101511.13
2022-10-09T22:11:52.290Z,101507.25
2022-10-09T22:14:25.830Z,101508.75
2022-10-09T22:17:00.949Z,101496.41
2022-10-09T22:19:34.672Z,101495.50
2022-10-09T22:22:08.501Z,101492.69
2022-10-09T22:24:42.112Z,101497.00
2022-10-09T22:27:15.947Z,101491.69
2022-10-09T22:29:49.497Z,101478.66
2022-10-09T22:32:24.593Z,101484.66
2022-10-09T22:34:58.120Z,101475.75
2022-10-09T22:37:31.921Z,101473.72
2022-10-09T22:40:06.031Z,101476.44
2022-10-09T22:42:39.757Z,101468.38
2022-10-09T22:45:13.239Z,101464.66
2022-10-09T22:47:49.093Z,101466.94
2022-10-09T22:50:22.601Z,101464.22
2022-10-09T22:52:56.446Z,101469.22
2022-10-09T22:55:30.350Z,101465.69
2022-10-09T22:58:04.024Z,101473.19
2022-10-09T23:00:38.464Z,101460.56
2022-10-09T23:03:13.682Z,101454.72
2022-10-09T23:05:47.156Z,101456.97
2022-10-09T23:08:21.019Z,101453.44
2022-10-09T23:10:54.527Z,101451.31
2022-10-09T23:13:28.315Z,101449.41
2022-10-09T23:16:02.179Z,101443.28
2022-10-09T23:18:38.100Z,101435.28
2022-10-09T23:21:14.330Z,101436.97
2022-10-09T23:23:49.997Z,101429.59
2022-10-09T23:26:25.125Z,101433.69
2022-10-09T23:29:00.821Z,101433.47
2022-10-09T23:31:35.032Z,101429.06
2022-10-09T23:34:10.702Z,101422.03
2022-10-09T23:36:44.219Z,101418.44
2022-10-09T23:39:17.910Z,101422.50
2022-10-09T23:41:51.370Z,101415.59
2022-10-09T23:44:25.279Z,101412.00
2022-10-09T23:46:58.837Z,101412.69
2022-10-09T23:49:33.874Z,101409.06
2022-10-09T23:52:08.716Z,101404.75
2022-10-09T23:54:42.635Z,101394.09
2022-10-09T23:57:16.209Z,101405.31
2022-10-09T23:59:49.907Z,101402.47
